Ana Sayfa
METAR-TAF:

METAR-TAF

Havaalanları :

Philip Billard Municipal Airport

Topeka, Kansas, Amerika Birleşik Devletleri

Enlem: 39-04-21N, Boylam: 095-37-33W, yükseklik: 268 m

Güncel hava durumu gözlemi

Rapor saat 03:53 UTC de 36 dakika önce yapıldı.
Sakin rüzgar
Sıcaklık 25°C
Nem 79%
Basınç 1012 hPa
Görüş mesafesi: 16.1 km
Açık gökyüzü

METAR: KTOP 240353Z AUTO 00000KT 10SM CLR 25/21 A2989 RMK AO2 SLP111 T02500211

Saat: 23:29 (04:29 UTC)

Tahmin

Rapor saat 23:20 UTC de 5 saat ve 9 dakika önce yapıldı.
Ayın 24'si saat 00 UTC'den ayın 24'si saat 24 UTC'ye kadar geçerli Tahmin
Rüzgar güney/güneydoğudan 6 kt
Görüş mesafesi: 10 km
25000 ft yükseklikte az bulutlu
Ayın 24'si saat 1400 UTC'den
Rüzgar güneydan 13 kt ve 23 kt'a kadar ani rüzgarlar
Görüş mesafesi: 10 km
25000 ft yükseklikte az bulutlu

TAF: KTOP 232320Z 2400/2424 15006KT P6SM FEW250 FM241400 18013G23KT P6SM FEW250

4.000'den fazla havaalanı için hava durumu gözlemleri ve tahminleri (METAR ve TAF raporları).

Kullanılabilir istasyonlar harita üzerinde sarı ve kırmızı noktalarla gösterilir.

İstasyonun adını görmek için fareyi noktanın üzerinde gezdirin.

Sonrasında hava gözlem ve tahminlerini görmek için tıklayın.

Haritayı değiştirmek için: yaklaştırmak için siyah artı işaretli yeşil düğmeye ve uzaklaştırmak için de eksi işaretli düğmeye hızla tıklayın; bitişik haritalar için yeşil okları kullanın.


METAR-TAF: